sensor_id;sensor_type;location;lat;lon;timestamp;temperature;humidity
5647;DHT22;2845;48.626;9.362;2022-09-09T00:00:18;13.40;95.50
5647;DHT22;2845;48.626;9.362;2022-09-09T00:03:11;13.50;95.70
5647;DHT22;2845;48.626;9.362;2022-09-09T00:06:26;13.60;95.60
5647;DHT22;2845;48.626;9.362;2022-09-09T00:09:10;13.60;95.50
5647;DHT22;2845;48.626;9.362;2022-09-09T00:12:04;13.80;95.60
5647;DHT22;2845;48.626;9.362;2022-09-09T00:14:51;12.80;95.40
5647;DHT22;2845;48.626;9.362;2022-09-09T00:21:34;13.40;95.60
5647;DHT22;2845;48.626;9.362;2022-09-09T00:24:35;15.00;96.00
5647;DHT22;2845;48.626;9.362;2022-09-09T00:27:22;12.80;95.20
5647;DHT22;2845;48.626;9.362;2022-09-09T00:30:25;16.60;96.20
5647;DHT22;2845;48.626;9.362;2022-09-09T00:33:20;13.50;95.60
5647;DHT22;2845;48.626;9.362;2022-09-09T00:36:21;13.30;95.70
5647;DHT22;2845;48.626;9.362;2022-09-09T00:39:21;16.40;96.60
5647;DHT22;2845;48.626;9.362;2022-09-09T00:42:22;16.60;96.90
5647;DHT22;2845;48.626;9.362;2022-09-09T00:45:27;15.50;96.60
5647;DHT22;2845;48.626;9.362;2022-09-09T00:48:31;13.40;96.10
5647;DHT22;2845;48.626;9.362;2022-09-09T00:51:17;13.40;96.10
5647;DHT22;2845;48.626;9.362;2022-09-09T00:54:20;13.40;96.10
5647;DHT22;2845;48.626;9.362;2022-09-09T00:57:25;13.30;96.20
5647;DHT22;2845;48.626;9.362;2022-09-09T01:00:24;13.50;96.10
5647;DHT22;2845;48.626;9.362;2022-09-09T01:03:28;13.50;96.10
5647;DHT22;2845;48.626;9.362;2022-09-09T01:06:27;13.40;96.30
5647;DHT22;2845;48.626;9.362;2022-09-09T01:09:29;13.50;96.40
5647;DHT22;2845;48.626;9.362;2022-09-09T01:12:15;15.90;96.70
5647;DHT22;2845;48.626;9.362;2022-09-09T01:15:03;14.00;96.30
5647;DHT22;2845;48.626;9.362;2022-09-09T01:18:07;13.40;96.30
5647;DHT22;2845;48.626;9.362;2022-09-09T01:21:13;13.50;96.20
5647;DHT22;2845;48.626;9.362;2022-09-09T01:24:15;16.80;96.90
5647;DHT22;2845;48.626;9.362;2022-09-09T01:27:06;13.40;96.10
5647;DHT22;2845;48.626;9.362;2022-09-09T01:30:11;13.40;96.30
5647;DHT22;2845;48.626;9.362;2022-09-09T01:33:35;13.40;96.30
5647;DHT22;2845;48.626;9.362;2022-09-09T01:36:29;13.40;96.30
5647;DHT22;2845;48.626;9.362;2022-09-09T01:39:07;13.40;96.40
5647;DHT22;2845;48.626;9.362;2022-09-09T01:45:24;13.20;96.20
5647;DHT22;2845;48.626;9.362;2022-09-09T01:48:05;13.20;96.40
5647;DHT22;2845;48.626;9.362;2022-09-09T01:50:45;15.60;97.10
5647;DHT22;2845;48.626;9.362;2022-09-09T01:53:47;13.30;96.30
5647;DHT22;2845;48.626;9.362;2022-09-09T01:56:37;13.30;96.10
5647;DHT22;2845;48.626;9.362;2022-09-09T02:06:40;12.90;96.20
5647;DHT22;2845;48.626;9.362;2022-09-09T02:09:19;13.60;96.70
5647;DHT22;2845;48.626;9.362;2022-09-09T02:12:15;16.40;97.40
5647;DHT22;2845;48.626;9.362;2022-09-09T02:15:11;13.20;96.40
5647;DHT22;2845;48.626;9.362;2022-09-09T02:17:57;13.10;96.20
5647;DHT22;2845;48.626;9.362;2022-09-09T02:20:56;13.30;96.50
5647;DHT22;2845;48.626;9.362;2022-09-09T02:26:42;13.10;96.40
5647;DHT22;2845;48.626;9.362;2022-09-09T02:29:35;13.00;96.40
5647;DHT22;2845;48.626;9.362;2022-09-09T02:32:18;14.50;96.70
5647;DHT22;2845;48.626;9.362;2022-09-09T02:35:09;12.80;96.40
5647;DHT22;2845;48.626;9.362;2022-09-09T02:37:56;12.80;96.80
5647;DHT22;2845;48.626;9.362;2022-09-09T02:41:09;12.70;96.90
5647;DHT22;2845;48.626;9.362;2022-09-09T02:43:47;13.10;96.90
5647;DHT22;2845;48.626;9.362;2022-09-09T02:46:36;12.70;96.70
5647;DHT22;2845;48.626;9.362;2022-09-09T02:49:36;12.70;96.90
5647;DHT22;2845;48.626;9.362;2022-09-09T02:52:20;12.90;96.90
5647;DHT22;2845;48.626;9.362;2022-09-09T02:55:20;12.80;97.00
5647;DHT22;2845;48.626;9.362;2022-09-09T02:58:03;12.20;97.00
5647;DHT22;2845;48.626;9.362;2022-09-09T03:01:00;12.90;97.40
5647;DHT22;2845;48.626;9.362;2022-09-09T03:04:17;13.30;97.30
5647;DHT22;2845;48.626;9.362;2022-09-09T03:06:59;12.90;97.40
5647;DHT22;2845;48.626;9.362;2022-09-09T03:09:37;13.00;97.30
5647;DHT22;2845;48.626;9.362;2022-09-09T03:12:48;15.80;98.00
5647;DHT22;2845;48.626;9.362;2022-09-09T03:15:38;12.70;97.60
5647;DHT22;2845;48.626;9.362;2022-09-09T03:18:15;13.80;97.90
5647;DHT22;2845;48.626;9.362;2022-09-09T03:20:59;11.70;98.10
5647;DHT22;2845;48.626;9.362;2022-09-09T03:23:35;11.60;97.80
5647;DHT22;2845;48.626;9.362;2022-09-09T03:26:24;12.80;97.70
5647;DHT22;2845;48.626;9.362;2022-09-09T03:29:23;13.00;98.00
5647;DHT22;2845;48.626;9.362;2022-09-09T03:31:59;13.00;97.60
5647;DHT22;2845;48.626;9.362;2022-09-09T03:34:48;12.90;97.70
5647;DHT22;2845;48.626;9.362;2022-09-09T03:37:36;13.00;97.80
5647;DHT22;2845;48.626;9.362;2022-09-09T03:40:25;14.70;98.00
5647;DHT22;2845;48.626;9.362;2022-09-09T03:43:23;13.30;97.60
5647;DHT22;2845;48.626;9.362;2022-09-09T03:46:26;13.30;97.40
5647;DHT22;2845;48.626;9.362;2022-09-09T03:49:05;13.30;97.40
5647;DHT22;2845;48.626;9.362;2022-09-09T03:51:48;13.40;97.40
5647;DHT22;2845;48.626;9.362;2022-09-09T03:54:26;13.30;97.50
5647;DHT22;2845;48.626;9.362;2022-09-09T03:57:11;13.20;97.40
5647;DHT22;2845;48.626;9.362;2022-09-09T03:59:50;15.90;98.10
5647;DHT22;2845;48.626;9.362;2022-09-09T04:02:32;14.90;98.00
5647;DHT22;2845;48.626;9.362;2022-09-09T04:05:14;13.40;97.40
5647;DHT22;2845;48.626;9.362;2022-09-09T04:08:06;13.30;97.40
5647;DHT22;2845;48.626;9.362;2022-09-09T04:11:17;13.20;97.60
5647;DHT22;2845;48.626;9.362;2022-09-09T04:13:59;13.20;97.60
5647;DHT22;2845;48.626;9.362;2022-09-09T04:16:47;13.30;97.50
5647;DHT22;2845;48.626;9.362;2022-09-09T04:20:00;11.50;97.20
5647;DHT22;2845;48.626;9.362;2022-09-09T04:22:51;13.20;97.80
5647;DHT22;2845;48.626;9.362;2022-09-09T04:26:05;13.20;97.80
5647;DHT22;2845;48.626;9.362;2022-09-09T04:28:59;13.30;97.70
5647;DHT22;2845;48.626;9.362;2022-09-09T04:31:39;13.30;97.70
5647;DHT22;2845;48.626;9.362;2022-09-09T04:34:28;13.20;97.60
5647;DHT22;2845;48.626;9.362;2022-09-09T04:37:22;13.10;97.60
5647;DHT22;2845;48.626;9.362;2022-09-09T04:40:06;13.10;97.90
5647;DHT22;2845;48.626;9.362;2022-09-09T04:42:53;13.00;98.00
5647;DHT22;2845;48.626;9.362;2022-09-09T04:45:48;13.10;97.80
5647;DHT22;2845;48.626;9.362;2022-09-09T04:48:30;12.90;97.90
5647;DHT22;2845;48.626;9.362;2022-09-09T04:51:17;13.10;98.10
5647;DHT22;2845;48.626;9.362;2022-09-09T04:54:25;13.20;97.90
5647;DHT22;2845;48.626;9.362;2022-09-09T04:57:17;12.70;97.80
5647;DHT22;2845;48.626;9.362;2022-09-09T04:59:56;13.70;97.90
5647;DHT22;2845;48.626;9.362;2022-09-09T05:03:03;14.50;98.10
5647;DHT22;2845;48.626;9.362;2022-09-09T05:05:44;16.50;98.70
5647;DHT22;2845;48.626;9.362;2022-09-09T05:08:24;15.70;98.30
5647;DHT22;2845;48.626;9.362;2022-09-09T05:11:15;13.20;98.10
5647;DHT22;2845;48.626;9.362;2022-09-09T05:14:04;13.30;97.90
5647;DHT22;2845;48.626;9.362;2022-09-09T05:17:05;15.60;98.40
5647;DHT22;2845;48.626;9.362;2022-09-09T05:19:49;16.20;98.80
5647;DHT22;2845;48.626;9.362;2022-09-09T05:22:29;13.20;98.20
5647;DHT22;2845;48.626;9.362;2022-09-09T05:25:07;13.30;98.30
5647;DHT22;2845;48.626;9.362;2022-09-09T05:27:56;10.60;97.70
5647;DHT22;2845;48.626;9.362;2022-09-09T05:30:43;12.90;98.20
5647;DHT22;2845;48.626;9.362;2022-09-09T05:33:21;16.60;99.20
5647;DHT22;2845;48.626;9.362;2022-09-09T05:36:12;13.40;98.30
5647;DHT22;2845;48.626;9.362;2022-09-09T05:38:55;14.00;98.40
5647;DHT22;2845;48.626;9.362;2022-09-09T05:41:41;14.80;98.60
5647;DHT22;2845;48.626;9.362;2022-09-09T05:44:19;16.20;99.00
5647;DHT22;2845;48.626;9.362;2022-09-09T05:46:59;13.30;98.30
5647;DHT22;2845;48.626;9.362;2022-09-09T05:49:41;13.70;98.50
5647;DHT22;2845;48.626;9.362;2022-09-09T05:52:18;13.80;98.20
5647;DHT22;2845;48.626;9.362;2022-09-09T05:55:23;13.70;98.20
5647;DHT22;2845;48.626;9.362;2022-09-09T05:58:06;13.90;98.10
5647;DHT22;2845;48.626;9.362;2022-09-09T06:01:03;14.00;98.00
5647;DHT22;2845;48.626;9.362;2022-09-09T06:03:41;14.20;97.90
5647;DHT22;2845;48.626;9.362;2022-09-09T06:06:18;14.20;97.80
5647;DHT22;2845;48.626;9.362;2022-09-09T06:09:12;13.30;97.50
5647;DHT22;2845;48.626;9.362;2022-09-09T06:12:12;14.20;97.60
5647;DHT22;2845;48.626;9.362;2022-09-09T06:14:53;14.50;97.70
5647;DHT22;2845;48.626;9.362;2022-09-09T06:17:44;16.70;97.90
5647;DHT22;2845;48.626;9.362;2022-09-09T06:20:29;16.60;97.70
5647;DHT22;2845;48.626;9.362;2022-09-09T06:23:18;15.00;97.20
5647;DHT22;2845;48.626;9.362;2022-09-09T06:26:01;16.00;97.40
5647;DHT22;2845;48.626;9.362;2022-09-09T06:28:44;16.10;97.10
5647;DHT22;2845;48.626;9.362;2022-09-09T06:31:25;17.90;97.10
5647;DHT22;2845;48.626;9.362;2022-09-09T06:34:20;16.70;96.90
5647;DHT22;2845;48.626;9.362;2022-09-09T06:37:01;15.20;96.50
5647;DHT22;2845;48.626;9.362;2022-09-09T06:39:42;15.30;96.30
5647;DHT22;2845;48.626;9.362;2022-09-09T06:42:17;15.30;96.30
5647;DHT22;2845;48.626;9.362;2022-09-09T06:45:01;15.50;96.30
5647;DHT22;2845;48.626;9.362;2022-09-09T06:47:44;13.20;96.00
5647;DHT22;2845;48.626;9.362;2022-09-09T06:50:39;15.90;96.30
5647;DHT22;2845;48.626;9.362;2022-09-09T06:53:17;17.80;96.10
5647;DHT22;2845;48.626;9.362;2022-09-09T06:56:15;16.20;96.10
5647;DHT22;2845;48.626;9.362;2022-09-09T06:59:23;16.40;95.70
5647;DHT22;2845;48.626;9.362;2022-09-09T07:02:02;16.60;95.30
5647;DHT22;2845;48.626;9.362;2022-09-09T07:05:11;16.60;95.00
5647;DHT22;2845;48.626;9.362;2022-09-09T07:18:35;16.70;95.20
5647;DHT22;2845;48.626;9.362;2022-09-09T07:21:13;16.70;95.00
5647;DHT22;2845;48.626;9.362;2022-09-09T07:27:37;17.00;95.00
5647;DHT22;2845;48.626;9.362;2022-09-09T07:30:18;17.50;94.70
5647;DHT22;2845;48.626;9.362;2022-09-09T07:33:12;17.20;94.60
5647;DHT22;2845;48.626;9.362;2022-09-09T07:35:54;17.40;94.70
5647;DHT22;2845;48.626;9.362;2022-09-09T07:38:44;18.80;94.30
5647;DHT22;2845;48.626;9.362;2022-09-09T07:45:41;18.10;93.80
5647;DHT22;2845;48.626;9.362;2022-09-09T07:48:16;18.20;93.40
5647;DHT22;2845;48.626;9.362;2022-09-09T07:55:05;18.70;92.90
5647;DHT22;2845;48.626;9.362;2022-09-09T08:02:10;18.20;92.70
5647;DHT22;2845;48.626;9.362;2022-09-09T08:08:54;18.10;93.20
5647;DHT22;2845;48.626;9.362;2022-09-09T08:15:37;18.20;93.00
5647;DHT22;2845;48.626;9.362;2022-09-09T08:23:05;18.20;93.00
5647;DHT22;2845;48.626;9.362;2022-09-09T08:29:46;18.50;93.50
5647;DHT22;2845;48.626;9.362;2022-09-09T08:32:48;19.00;93.40
5647;DHT22;2845;48.626;9.362;2022-09-09T08:35:59;19.50;92.20
5647;DHT22;2845;48.626;9.362;2022-09-09T08:38:59;19.90;91.90
5647;DHT22;2845;48.626;9.362;2022-09-09T08:45:37;19.70;91.40
5647;DHT22;2845;48.626;9.362;2022-09-09T08:48:50;19.60;91.50
5647;DHT22;2845;48.626;9.362;2022-09-09T08:55:57;19.70;91.40
5647;DHT22;2845;48.626;9.362;2022-09-09T08:58:43;19.80;91.80
5647;DHT22;2845;48.626;9.362;2022-09-09T09:05:10;20.10;91.10
5647;DHT22;2845;48.626;9.362;2022-09-09T09:08:08;18.40;90.70
5647;DHT22;2845;48.626;9.362;2022-09-09T09:11:02;20.30;91.10
5647;DHT22;2845;48.626;9.362;2022-09-09T09:13:45;23.20;91.30
5647;DHT22;2845;48.626;9.362;2022-09-09T09:20:39;20.10;90.80
5647;DHT22;2845;48.626;9.362;2022-09-09T09:27:33;20.10;90.70
5647;DHT22;2845;48.626;9.362;2022-09-09T09:34:14;19.90;90.70
5647;DHT22;2845;48.626;9.362;2022-09-09T09:41:30;20.00;90.80
5647;DHT22;2845;48.626;9.362;2022-09-09T09:44:32;20.10;90.50
5647;DHT22;2845;48.626;9.362;2022-09-09T09:47:12;20.80;90.10
5647;DHT22;2845;48.626;9.362;2022-09-09T09:49:52;20.30;89.60
5647;DHT22;2845;48.626;9.362;2022-09-09T09:52:29;20.30;89.10
5647;DHT22;2845;48.626;9.362;2022-09-09T09:55:12;21.70;90.10
5647;DHT22;2845;48.626;9.362;2022-09-09T09:57:54;21.70;90.00
5647;DHT22;2845;48.626;9.362;2022-09-09T10:00:47;21.70;90.00
5647;DHT22;2845;48.626;9.362;2022-09-09T10:03:26;21.70;89.50
5647;DHT22;2845;48.626;9.362;2022-09-09T10:06:02;20.70;88.50
5647;DHT22;2845;48.626;9.362;2022-09-09T10:08:54;20.70;88.40
5647;DHT22;2845;48.626;9.362;2022-09-09T10:11:39;20.70;88.10
5647;DHT22;2845;48.626;9.362;2022-09-09T10:14:40;23.00;89.30
5647;DHT22;2845;48.626;9.362;2022-09-09T10:17:28;23.00;88.80
5647;DHT22;2845;48.626;9.362;2022-09-09T10:20:18;22.80;87.70
5647;DHT22;2845;48.626;9.362;2022-09-09T10:23:09;21.00;86.20
5647;DHT22;2845;48.626;9.362;2022-09-09T10:26:03;21.00;86.00
5647;DHT22;2845;48.626;9.362;2022-09-09T10:29:11;20.80;87.00
5647;DHT22;2845;48.626;9.362;2022-09-09T10:32:19;21.10;86.90
5647;DHT22;2845;48.626;9.362;2022-09-09T10:35:11;20.90;87.00
5647;DHT22;2845;48.626;9.362;2022-09-09T10:38:08;20.90;86.60
5647;DHT22;2845;48.626;9.362;2022-09-09T10:41:06;20.70;87.20
5647;DHT22;2845;48.626;9.362;2022-09-09T10:50:32;21.00;85.90
5647;DHT22;2845;48.626;9.362;2022-09-09T10:53:49;20.80;85.40
5647;DHT22;2845;48.626;9.362;2022-09-09T10:56:29;20.50;87.30
5647;DHT22;2845;48.626;9.362;2022-09-09T10:59:06;21.30;87.50
5647;DHT22;2845;48.626;9.362;2022-09-09T11:02:07;21.80;86.80
5647;DHT22;2845;48.626;9.362;2022-09-09T11:08:19;21.00;85.90
5647;DHT22;2845;48.626;9.362;2022-09-09T11:11:00;20.90;85.30
5647;DHT22;2845;48.626;9.362;2022-09-09T11:13:42;21.60;85.10
5647;DHT22;2845;48.626;9.362;2022-09-09T11:16:40;23.80;84.50
5647;DHT22;2845;48.626;9.362;2022-09-09T11:19:25;21.20;83.50
5647;DHT22;2845;48.626;9.362;2022-09-09T11:22:06;22.10;83.30
5647;DHT22;2845;48.626;9.362;2022-09-09T11:24:57;22.10;82.70
5647;DHT22;2845;48.626;9.362;2022-09-09T11:27:38;22.90;82.40
5647;DHT22;2845;48.626;9.362;2022-09-09T11:30:32;22.90;82.10
5647;DHT22;2845;48.626;9.362;2022-09-09T11:33:49;22.70;81.90
5647;DHT22;2845;48.626;9.362;2022-09-09T11:37:10;21.70;79.40
5647;DHT22;2845;48.626;9.362;2022-09-09T11:40:15;21.50;79.80
5647;DHT22;2845;48.626;9.362;2022-09-09T11:43:02;21.50;80.90
5647;DHT22;2845;48.626;9.362;2022-09-09T11:45:41;21.40;82.20
5647;DHT22;2845;48.626;9.362;2022-09-09T11:48:36;23.20;86.90
5647;DHT22;2845;48.626;9.362;2022-09-09T11:51:27;20.30;88.40
5647;DHT22;2845;48.626;9.362;2022-09-09T12:02:00;19.40;93.40
5647;DHT22;2845;48.626;9.362;2022-09-09T12:04:46;19.40;92.70
5647;DHT22;2845;48.626;9.362;2022-09-09T12:07:30;22.20;93.40
5647;DHT22;2845;48.626;9.362;2022-09-09T12:10:23;21.80;93.70
5647;DHT22;2845;48.626;9.362;2022-09-09T12:13:24;19.60;93.60
5647;DHT22;2845;48.626;9.362;2022-09-09T12:16:28;19.80;93.60
5647;DHT22;2845;48.626;9.362;2022-09-09T12:19:14;20.20;93.00
5647;DHT22;2845;48.626;9.362;2022-09-09T12:22:04;21.90;92.60
5647;DHT22;2845;48.626;9.362;2022-09-09T12:25:03;20.90;92.00
5647;DHT22;2845;48.626;9.362;2022-09-09T12:27:54;23.10;91.80
5647;DHT22;2845;48.626;9.362;2022-09-09T12:30:43;20.90;90.40
5647;DHT22;2845;48.626;9.362;2022-09-09T12:33:36;20.30;90.70
5647;DHT22;2845;48.626;9.362;2022-09-09T12:36:16;21.30;90.80
5647;DHT22;2845;48.626;9.362;2022-09-09T12:39:10;20.30;90.00
5647;DHT22;2845;48.626;9.362;2022-09-09T12:41:54;20.20;88.80
5647;DHT22;2845;48.626;9.362;2022-09-09T12:44:30;21.30;88.30
5647;DHT22;2845;48.626;9.362;2022-09-09T12:47:09;22.60;89.30
5647;DHT22;2845;48.626;9.362;2022-09-09T13:05:37;21.00;85.50
5647;DHT22;2845;48.626;9.362;2022-09-09T13:08:14;21.10;86.10
5647;DHT22;2845;48.626;9.362;2022-09-09T13:11:02;21.90;86.20
5647;DHT22;2845;48.626;9.362;2022-09-09T13:13:40;23.10;86.90
5647;DHT22;2845;48.626;9.362;2022-09-09T13:16:21;20.80;84.30
5647;DHT22;2845;48.626;9.362;2022-09-09T13:19:40;20.60;85.10
5647;DHT22;2845;48.626;9.362;2022-09-09T13:22:23;20.60;85.60
5647;DHT22;2845;48.626;9.362;2022-09-09T13:25:13;23.50;86.10
5647;DHT22;2845;48.626;9.362;2022-09-09T13:27:55;23.20;86.10
5647;DHT22;2845;48.626;9.362;2022-09-09T13:30:32;23.50;85.30
5647;DHT22;2845;48.626;9.362;2022-09-09T13:33:21;23.50;86.00
5647;DHT22;2845;48.626;9.362;2022-09-09T13:36:11;23.20;85.70
5647;DHT22;2845;48.626;9.362;2022-09-09T13:38:54;21.20;80.30
5647;DHT22;2845;48.626;9.362;2022-09-09T13:41:34;21.60;81.30
5647;DHT22;2845;48.626;9.362;2022-09-09T13:44:17;21.00;81.60
5647;DHT22;2845;48.626;9.362;2022-09-09T13:47:18;22.20;82.00
5647;DHT22;2845;48.626;9.362;2022-09-09T13:50:18;21.00;82.10
5647;DHT22;2845;48.626;9.362;2022-09-09T13:52:57;21.00;82.20
5647;DHT22;2845;48.626;9.362;2022-09-09T13:55:59;20.90;82.30
5647;DHT22;2845;48.626;9.362;2022-09-09T13:58:42;21.00;82.70
5647;DHT22;2845;48.626;9.362;2022-09-09T14:01:16;21.00;82.20
5647;DHT22;2845;48.626;9.362;2022-09-09T14:03:54;23.50;84.20
5647;DHT22;2845;48.626;9.362;2022-09-09T14:06:30;22.90;84.00
5647;DHT22;2845;48.626;9.362;2022-09-09T14:09:11;22.10;82.90
5647;DHT22;2845;48.626;9.362;2022-09-09T14:11:54;21.60;82.80
5647;DHT22;2845;48.626;9.362;2022-09-09T14:14:29;23.10;83.60
5647;DHT22;2845;48.626;9.362;2022-09-09T14:17:12;23.30;84.00
5647;DHT22;2845;48.626;9.362;2022-09-09T14:19:48;21.60;82.10
5647;DHT22;2845;48.626;9.362;2022-09-09T14:22:23;22.40;81.80
5647;DHT22;2845;48.626;9.362;2022-09-09T14:25:01;23.80;80.30
5647;DHT22;2845;48.626;9.362;2022-09-09T14:31:18;22.20;79.80
5647;DHT22;2845;48.626;9.362;2022-09-09T14:34:06;22.80;79.10
5647;DHT22;2845;48.626;9.362;2022-09-09T14:36:48;23.00;78.10
5647;DHT22;2845;48.626;9.362;2022-09-09T14:39:23;22.80;77.50
5647;DHT22;2845;48.626;9.362;2022-09-09T14:42:11;22.70;77.60
5647;DHT22;2845;48.626;9.362;2022-09-09T14:44:46;22.30;78.10
5647;DHT22;2845;48.626;9.362;2022-09-09T14:47:24;24.10;78.60
5647;DHT22;2845;48.626;9.362;2022-09-09T14:50:00;22.60;78.50
5647;DHT22;2845;48.626;9.362;2022-09-09T14:52:48;24.40;78.30
5647;DHT22;2845;48.626;9.362;2022-09-09T14:59:31;22.20;77.60
5647;DHT22;2845;48.626;9.362;2022-09-09T15:02:12;23.30;78.30
5647;DHT22;2845;48.626;9.362;2022-09-09T15:04:48;22.60;78.00
5647;DHT22;2845;48.626;9.362;2022-09-09T15:07:26;22.90;76.80
5647;DHT22;2845;48.626;9.362;2022-09-09T15:10:01;23.00;77.30
5647;DHT22;2845;48.626;9.362;2022-09-09T15:12:42;23.40;76.70
5647;DHT22;2845;48.626;9.362;2022-09-09T15:15:26;24.60;77.90
5647;DHT22;2845;48.626;9.362;2022-09-09T15:18:01;22.00;77.90
5647;DHT22;2845;48.626;9.362;2022-09-09T15:20:36;21.90;78.20
5647;DHT22;2845;48.626;9.362;2022-09-09T15:23:18;22.70;78.70
5647;DHT22;2845;48.626;9.362;2022-09-09T15:26:00;21.70;79.10
5647;DHT22;2845;48.626;9.362;2022-09-09T15:28:37;21.70;79.00
5647;DHT22;2845;48.626;9.362;2022-09-09T15:31:15;21.80;78.20
5647;DHT22;2845;48.626;9.362;2022-09-09T15:34:01;24.10;79.50
5647;DHT22;2845;48.626;9.362;2022-09-09T15:36:59;20.70;79.00
5647;DHT22;2845;48.626;9.362;2022-09-09T15:39:36;22.00;79.00
5647;DHT22;2845;48.626;9.362;2022-09-09T15:42:11;22.20;78.40
5647;DHT22;2845;48.626;9.362;2022-09-09T15:45:00;22.70;77.70
5647;DHT22;2845;48.626;9.362;2022-09-09T15:47:50;22.20;78.50
5647;DHT22;2845;48.626;9.362;2022-09-09T15:50:24;22.70;77.90
5647;DHT22;2845;48.626;9.362;2022-09-09T15:52:59;22.10;77.50
5647;DHT22;2845;48.626;9.362;2022-09-09T15:55:35;23.80;78.10
5647;DHT22;2845;48.626;9.362;2022-09-09T15:58:18;21.90;78.00
5647;DHT22;2845;48.626;9.362;2022-09-09T16:00:52;22.20;78.60
5647;DHT22;2845;48.626;9.362;2022-09-09T16:03:30;23.10;77.90
5647;DHT22;2845;48.626;9.362;2022-09-09T16:06:25;22.90;78.40
5647;DHT22;2845;48.626;9.362;2022-09-09T16:09:04;21.20;78.80
5647;DHT22;2845;48.626;9.362;2022-09-09T16:11:42;22.90;79.40
5647;DHT22;2845;48.626;9.362;2022-09-09T16:21:26;20.70;78.80
5647;DHT22;2845;48.626;9.362;2022-09-09T16:24:03;20.70;78.30
5647;DHT22;2845;48.626;9.362;2022-09-09T16:26:41;20.70;78.20
5647;DHT22;2845;48.626;9.362;2022-09-09T16:29:19;20.90;79.00
5647;DHT22;2845;48.626;9.362;2022-09-09T16:32:00;20.60;78.30
5647;DHT22;2845;48.626;9.362;2022-09-09T16:34:38;20.60;78.10
5647;DHT22;2845;48.626;9.362;2022-09-09T16:37:13;22.20;78.10
5647;DHT22;2845;48.626;9.362;2022-09-09T16:39:48;21.50;77.90
5647;DHT22;2845;48.626;9.362;2022-09-09T16:42:30;20.70;78.30
5647;DHT22;2845;48.626;9.362;2022-09-09T16:45:12;20.70;77.30
5647;DHT22;2845;48.626;9.362;2022-09-09T16:47:54;21.70;77.10
5647;DHT22;2845;48.626;9.362;2022-09-09T16:50:32;22.10;77.50
5647;DHT22;2845;48.626;9.362;2022-09-09T16:53:08;20.60;77.40
5647;DHT22;2845;48.626;9.362;2022-09-09T16:55:48;20.50;78.30
5647;DHT22;2845;48.626;9.362;2022-09-09T16:58:23;21.80;78.20
5647;DHT22;2845;48.626;9.362;2022-09-09T17:01:00;20.40;78.10
5647;DHT22;2845;48.626;9.362;2022-09-09T17:03:42;21.70;79.10
5647;DHT22;2845;48.626;9.362;2022-09-09T17:06:24;23.20;80.00
5647;DHT22;2845;48.626;9.362;2022-09-09T17:09:03;20.20;79.00
5647;DHT22;2845;48.626;9.362;2022-09-09T17:11:41;20.10;78.80
5647;DHT22;2845;48.626;9.362;2022-09-09T17:14:19;19.00;78.50
5647;DHT22;2845;48.626;9.362;2022-09-09T17:16:55;20.00;78.80
5647;DHT22;2845;48.626;9.362;2022-09-09T17:19:50;22.30;80.10
5647;DHT22;2845;48.626;9.362;2022-09-09T17:22:26;20.00;79.20
5647;DHT22;2845;48.626;9.362;2022-09-09T17:25:01;19.80;79.90
5647;DHT22;2845;48.626;9.362;2022-09-09T17:27:48;19.80;80.60
5647;DHT22;2845;48.626;9.362;2022-09-09T17:30:24;21.00;79.90
5647;DHT22;2845;48.626;9.362;2022-09-09T17:33:12;22.60;80.50
5647;DHT22;2845;48.626;9.362;2022-09-09T17:35:46;22.30;80.90
5647;DHT22;2845;48.626;9.362;2022-09-09T17:38:24;21.30;80.90
5647;DHT22;2845;48.626;9.362;2022-09-09T17:41:01;19.50;80.30
5647;DHT22;2845;48.626;9.362;2022-09-09T17:43:43;19.70;80.40
5647;DHT22;2845;48.626;9.362;2022-09-09T17:46:19;20.40;81.60
5647;DHT22;2845;48.626;9.362;2022-09-09T17:48:57;19.40;81.50
5647;DHT22;2845;48.626;9.362;2022-09-09T17:51:33;22.50;83.60
5647;DHT22;2845;48.626;9.362;2022-09-09T17:54:12;22.20;82.90
5647;DHT22;2845;48.626;9.362;2022-09-09T17:56:48;19.20;82.00
5647;DHT22;2845;48.626;9.362;2022-09-09T17:59:24;19.20;82.20
5647;DHT22;2845;48.626;9.362;2022-09-09T18:02:00;19.10;82.00
5647;DHT22;2845;48.626;9.362;2022-09-09T18:04:42;20.30;82.80
5647;DHT22;2845;48.626;9.362;2022-09-09T18:07:17;20.70;82.60
5647;DHT22;2845;48.626;9.362;2022-09-09T18:09:54;21.50;83.50
5647;DHT22;2845;48.626;9.362;2022-09-09T18:12:36;21.50;83.90
5647;DHT22;2845;48.626;9.362;2022-09-09T18:15:12;20.50;83.20
5647;DHT22;2845;48.626;9.362;2022-09-09T18:18:12;20.10;83.70
5647;DHT22;2845;48.626;9.362;2022-09-09T18:20:57;19.50;83.80
5647;DHT22;2845;48.626;9.362;2022-09-09T18:23:34;19.60;83.90
5647;DHT22;2845;48.626;9.362;2022-09-09T18:26:12;20.00;84.70
5647;DHT22;2845;48.626;9.362;2022-09-09T18:28:52;21.60;85.80
5647;DHT22;2845;48.626;9.362;2022-09-09T18:31:30;20.40;85.50
5647;DHT22;2845;48.626;9.362;2022-09-09T18:34:08;20.20;85.80
5647;DHT22;2845;48.626;9.362;2022-09-09T18:36:50;18.30;85.30
5647;DHT22;2845;48.626;9.362;2022-09-09T18:39:28;16.80;84.60
5647;DHT22;2845;48.626;9.362;2022-09-09T18:42:05;18.20;85.80
5647;DHT22;2845;48.626;9.362;2022-09-09T18:44:48;18.20;86.80
5647;DHT22;2845;48.626;9.362;2022-09-09T18:47:24;19.40;87.00
5647;DHT22;2845;48.626;9.362;2022-09-09T18:49:59;18.00;86.40
5647;DHT22;2845;48.626;9.362;2022-09-09T18:52:37;18.00;87.00
5647;DHT22;2845;48.626;9.362;2022-09-09T18:55:13;19.30;87.40
5647;DHT22;2845;48.626;9.362;2022-09-09T18:57:52;19.80;87.80
5647;DHT22;2845;48.626;9.362;2022-09-09T19:00:30;20.70;88.70
5647;DHT22;2845;48.626;9.362;2022-09-09T19:03:06;20.10;88.90
5647;DHT22;2845;48.626;9.362;2022-09-09T19:05:40;17.70;87.00
5647;DHT22;2845;48.626;9.362;2022-09-09T19:08:18;18.80;88.00
5647;DHT22;2845;48.626;9.362;2022-09-09T19:10:54;19.10;88.30
5647;DHT22;2845;48.626;9.362;2022-09-09T19:13:33;17.60;87.90
5647;DHT22;2845;48.626;9.362;2022-09-09T19:16:10;19.90;88.90
5647;DHT22;2845;48.626;9.362;2022-09-09T19:18:49;17.60;88.10
5647;DHT22;2845;48.626;9.362;2022-09-09T19:21:26;19.20;89.20
5647;DHT22;2845;48.626;9.362;2022-09-09T19:24:14;17.50;89.10
5647;DHT22;2845;48.626;9.362;2022-09-09T19:26:53;17.80;89.40
5647;DHT22;2845;48.626;9.362;2022-09-09T19:29:33;17.50;89.30
5647;DHT22;2845;48.626;9.362;2022-09-09T19:32:11;19.60;90.40
5647;DHT22;2845;48.626;9.362;2022-09-09T19:35:24;18.20;90.10
5647;DHT22;2845;48.626;9.362;2022-09-09T19:38:12;17.10;89.50
5647;DHT22;2845;48.626;9.362;2022-09-09T19:40:48;17.00;90.00
5647;DHT22;2845;48.626;9.362;2022-09-09T19:43:23;17.00;89.50
5647;DHT22;2845;48.626;9.362;2022-09-09T19:46:05;19.30;90.20
5647;DHT22;2845;48.626;9.362;2022-09-09T19:48:41;17.00;90.00
5647;DHT22;2845;48.626;9.362;2022-09-09T19:51:18;17.10;90.10
5647;DHT22;2845;48.626;9.362;2022-09-09T19:53:55;19.10;90.40
5647;DHT22;2845;48.626;9.362;2022-09-09T19:56:43;18.00;90.20
5647;DHT22;2845;48.626;9.362;2022-09-09T19:59:17;20.00;90.80
5647;DHT22;2845;48.626;9.362;2022-09-09T20:01:55;18.50;90.20
5647;DHT22;2845;48.626;9.362;2022-09-09T20:04:31;19.50;90.40
5647;DHT22;2845;48.626;9.362;2022-09-09T20:07:06;17.10;89.90
5647;DHT22;2845;48.626;9.362;2022-09-09T20:09:43;19.90;90.60
5647;DHT22;2845;48.626;9.362;2022-09-09T20:12:18;17.10;90.00
5647;DHT22;2845;48.626;9.362;2022-09-09T20:14:54;19.40;90.60
5647;DHT22;2845;48.626;9.362;2022-09-09T20:17:34;18.80;90.50
5647;DHT22;2845;48.626;9.362;2022-09-09T20:20:09;18.60;90.40
5647;DHT22;2845;48.626;9.362;2022-09-09T20:22:48;16.80;90.10